createdAt,value
2017-10-26T00:00:58.775Z,55.27
2017-10-26T00:05:02.205Z,54.27
2017-10-26T00:09:05.686Z,65.10
2017-10-26T00:13:09.956Z,58.27
2017-10-26T00:17:13.407Z,66.03
2017-10-26T00:21:17.590Z,61.50
2017-10-26T00:25:21.030Z,64.80
2017-10-26T00:29:25.218Z,49.63
2017-10-26T00:33:28.669Z,63.57
2017-10-26T00:37:32.854Z,64.00
2017-10-26T00:41:36.313Z,78.33
2017-10-26T00:45:40.502Z,77.73
2017-10-26T00:49:43.943Z,72.50
2017-10-26T00:53:48.133Z,78.63
2017-10-26T00:57:51.884Z,68.83
2017-10-26T01:01:55.286Z,77.77
2017-10-26T01:05:59.819Z,77.20
2017-10-26T01:10:03.195Z,72.33
2017-10-26T01:14:06.612Z,84.03
2017-10-26T01:18:10.035Z,71.50
2017-10-26T01:22:14.274Z,68.77
2017-10-26T01:26:17.679Z,62.80
2017-10-26T01:30:21.366Z,77.60
2017-10-26T01:34:25.519Z,70.60
2017-10-26T01:38:28.939Z,71.50
2017-10-26T01:42:32.339Z,69.77
2017-10-26T01:46:36.030Z,79.90
2017-10-26T01:50:39.422Z,61.63
2017-10-26T01:54:43.675Z,67.23
2017-10-26T01:58:47.054Z,61.67
2017-10-26T02:02:51.562Z,56.70
2017-10-26T02:06:54.963Z,63.10
2017-10-26T02:10:58.719Z,64.53
2017-10-26T02:15:02.152Z,72.37
2017-10-26T02:19:05.842Z,64.13
2017-10-26T02:23:09.251Z,62.13
2017-10-26T02:27:13.468Z,71.10
2017-10-26T02:31:34.560Z,64.07
2017-10-26T02:35:37.999Z,75.07
2017-10-26T02:39:41.420Z,64.00
2017-10-26T02:43:44.872Z,70.90
2017-10-26T02:47:48.288Z,57.10
2017-10-26T02:51:51.744Z,72.33
2017-10-26T02:55:55.192Z,75.10
2017-10-26T02:59:58.659Z,67.60
2017-10-26T03:04:02.097Z,75.57
2017-10-26T03:08:05.555Z,72.57
2017-10-26T03:12:08.969Z,78.40
2017-10-26T03:16:12.398Z,59.20
2017-10-26T03:20:15.824Z,71.73
2017-10-26T03:24:19.670Z,62.90
2017-10-26T03:28:23.855Z,68.90
2017-10-26T03:32:27.615Z,66.87
2017-10-26T03:36:31.041Z,72.87
2017-10-26T03:40:34.490Z,63.23
2017-10-26T03:44:37.922Z,59.73
2017-10-26T03:48:41.359Z,63.57
2017-10-26T03:52:44.778Z,59.63
2017-10-26T03:56:48.240Z,56.37
2017-10-26T04:00:51.648Z,61.40
2017-10-26T04:04:55.877Z,58.37
2017-10-26T04:09:00.069Z,60.53
2017-10-26T04:13:03.568Z,57.87
2017-10-26T04:17:07.003Z,53.67
2017-10-26T04:21:10.447Z,53.10
2017-10-26T04:25:13.864Z,55.43
2017-10-26T04:29:17.620Z,57.30
2017-10-26T04:33:21.033Z,64.20
2017-10-26T04:37:24.778Z,56.17
2017-10-26T04:41:28.191Z,47.83
2017-10-26T04:45:31.668Z,51.03
2017-10-26T04:49:35.848Z,62.60
2017-10-26T04:53:39.625Z,53.27
2017-10-26T04:57:43.034Z,62.03
2017-10-26T05:01:46.532Z,57.67
2017-10-26T05:05:50.719Z,58.53
2017-10-26T05:09:54.200Z,50.13
2017-10-26T05:13:58.392Z,49.77
2017-10-26T05:18:02.610Z,56.23
2017-10-26T05:22:06.807Z,52.30
2017-10-26T05:26:10.331Z,53.20
2017-10-26T05:30:13.746Z,49.50
2017-10-26T05:34:17.942Z,56.07
2017-10-26T05:38:21.338Z,47.63
2017-10-26T05:42:25.063Z,52.23
2017-10-26T05:46:28.471Z,55.50
2017-10-26T05:50:31.921Z,48.57
2017-10-26T05:54:35.339Z,50.33
2017-10-26T05:58:38.797Z,52.10
2017-10-26T06:02:42.223Z,52.80
2017-10-26T06:06:46.436Z,52.20
2017-10-26T06:10:50.622Z,55.03
2017-10-26T06:14:54.065Z,56.87
2017-10-26T06:18:58.275Z,51.63
2017-10-26T06:23:01.720Z,55.60
2017-10-26T06:27:05.143Z,49.30
2017-10-26T06:31:08.615Z,52.50
2017-10-26T06:35:12.806Z,51.23
2017-10-26T06:39:16.259Z,48.70
2017-10-26T06:43:20.424Z,46.57
2017-10-26T06:47:24.206Z,48.83
2017-10-26T06:51:27.619Z,49.80
2017-10-26T06:55:31.069Z,44.13
2017-10-26T06:59:34.495Z,38.43
2017-10-26T07:03:37.935Z,43.03
2017-10-26T07:07:41.345Z,42.50
2017-10-26T07:11:44.787Z,39.10
2017-10-26T07:15:48.208Z,45.40
2017-10-26T07:19:51.964Z,46.60
2017-10-26T07:23:55.405Z,42.67
2017-10-26T07:27:58.842Z,39.63
2017-10-26T07:32:02.252Z,35.00
2017-10-26T07:36:05.964Z,39.77
2017-10-26T07:40:09.375Z,33.73
2017-10-26T07:44:13.126Z,39.27
2017-10-26T07:48:16.543Z,38.03
2017-10-26T07:52:19.987Z,34.83
2017-10-26T07:56:23.408Z,38.50
2017-10-26T08:00:26.848Z,40.27
2017-10-26T08:04:30.282Z,35.23
2017-10-26T08:08:34.000Z,29.07
2017-10-26T08:12:37.507Z,31.30
2017-10-26T08:16:40.959Z,34.90
2017-10-26T08:20:45.115Z,32.17
2017-10-26T08:24:49.324Z,32.10
2017-10-26T08:28:52.750Z,35.10
2017-10-26T08:32:56.197Z,39.30
2017-10-26T08:36:59.620Z,37.90
2017-10-26T08:41:03.359Z,33.33
2017-10-26T08:45:06.769Z,33.13
2017-10-26T08:49:10.223Z,29.80
2017-10-26T08:53:13.641Z,32.67
2017-10-26T08:57:17.071Z,30.03
2017-10-26T09:01:20.489Z,30.53
2017-10-26T09:05:23.917Z,34.63
2017-10-26T09:09:27.318Z,26.90
2017-10-26T09:13:30.771Z,29.37
2017-10-26T09:17:34.190Z,31.43
2017-10-26T09:21:38.391Z,34.33
2017-10-26T09:25:41.788Z,30.57
2017-10-26T09:29:45.259Z,30.73
2017-10-26T09:33:48.683Z,33.63
2017-10-26T09:37:52.112Z,30.73
2017-10-26T09:41:55.520Z,31.33
2017-10-26T09:45:58.944Z,28.33
2017-10-26T09:50:02.344Z,27.83
2017-10-26T09:54:05.808Z,32.20
2017-10-26T09:58:09.218Z,27.80
2017-10-26T10:02:12.673Z,25.30
2017-10-26T10:06:16.091Z,23.23
2017-10-26T10:10:20.295Z,23.57
2017-10-26T10:14:23.698Z,26.30
2017-10-26T10:18:27.143Z,20.70
2017-10-26T10:22:30.547Z,16.03
2017-10-26T10:26:34.029Z,19.60
2017-10-26T10:30:38.216Z,19.83
2017-10-26T10:34:41.640Z,17.13
2017-10-26T10:38:45.051Z,16.33
2017-10-26T10:42:48.476Z,14.87
2017-10-26T10:46:52.646Z,13.70
2017-10-26T10:50:56.105Z,15.80
2017-10-26T10:55:00.271Z,16.03
2017-10-26T10:59:09.192Z,14.67
2017-10-26T11:03:12.588Z,16.80
2017-10-26T11:07:16.034Z,15.63
2017-10-26T11:11:19.423Z,15.50
2017-10-26T11:15:22.846Z,18.43
2017-10-26T11:19:26.256Z,17.20
2017-10-26T11:23:29.687Z,21.30
2017-10-26T11:27:33.094Z,20.17
2017-10-26T11:31:36.531Z,18.43
2017-10-26T11:35:39.977Z,21.30
2017-10-26T11:39:44.144Z,15.37
2017-10-26T11:43:48.337Z,14.60
2017-10-26T11:47:51.775Z,17.60
2017-10-26T11:51:55.952Z,14.90
2017-10-26T11:55:59.379Z,14.43
2017-10-26T12:00:02.769Z,11.00
2017-10-26T12:04:06.235Z,13.23
2017-10-26T12:08:09.738Z,14.90
2017-10-26T12:12:13.286Z,13.10
2017-10-26T12:16:16.736Z,11.87
2017-10-26T12:20:21.021Z,12.70
2017-10-26T12:24:24.502Z,11.33
2017-10-26T12:28:27.996Z,12.03
2017-10-26T12:32:31.452Z,12.57
2017-10-26T12:36:35.292Z,11.10
2017-10-26T12:40:38.723Z,11.10
2017-10-26T12:44:43.198Z,14.70
2017-10-26T12:48:46.604Z,29.20
2017-10-26T12:52:50.059Z,18.90
2017-10-26T12:56:54.217Z,14.50
2017-10-26T13:00:57.662Z,17.47
2017-10-26T13:05:01.096Z,15.40
2017-10-26T13:09:05.630Z,13.40
2017-10-26T13:13:09.796Z,16.00
2017-10-26T13:17:13.248Z,16.70
2017-10-26T13:21:16.633Z,16.73
2017-10-26T13:25:20.396Z,17.27
2017-10-26T13:29:23.821Z,17.90
2017-10-26T13:33:27.292Z,15.00
2017-10-26T13:37:31.466Z,19.80
2017-10-26T13:41:34.909Z,15.30
2017-10-26T13:45:38.360Z,20.83
2017-10-26T13:49:41.822Z,19.50
2017-10-26T13:53:46.003Z,17.10
2017-10-26T13:57:49.446Z,16.57
2017-10-26T14:01:52.859Z,19.90
2017-10-26T14:05:56.307Z,17.60
2017-10-26T14:09:59.834Z,17.43
2017-10-26T14:14:03.287Z,13.73
2017-10-26T14:18:07.478Z,15.47
2017-10-26T14:22:10.926Z,20.50
2017-10-26T14:26:15.156Z,17.83
2017-10-26T14:30:19.374Z,17.10
2017-10-26T14:34:22.799Z,18.90
2017-10-26T14:38:26.267Z,22.60
2017-10-26T14:42:29.697Z,25.93
2017-10-26T14:46:33.967Z,31.93
2017-10-26T14:50:37.362Z,21.83
2017-10-26T14:54:40.815Z,25.53
2017-10-26T14:58:45.020Z,19.00
2017-10-26T15:02:48.452Z,21.73
2017-10-26T15:06:51.881Z,20.67
2017-10-26T15:13:16.888Z,23.83
2017-10-26T15:17:20.370Z,23.30
2017-10-26T15:21:23.909Z,22.67
2017-10-26T15:25:27.365Z,22.23
2017-10-26T15:29:30.880Z,20.00
2017-10-26T15:33:34.613Z,22.83
2017-10-26T15:37:38.102Z,23.48
2017-10-26T15:45:07.978Z,34.53
2017-10-26T15:51:11.467Z,25.40
2017-10-26T15:57:15.100Z,39.47
2017-10-26T16:03:18.702Z,27.37
2017-10-26T16:09:22.957Z,31.90
2017-10-26T16:15:26.565Z,27.40
2017-10-26T16:21:30.043Z,43.43
2017-10-26T16:27:33.556Z,24.07
2017-10-26T16:33:37.057Z,34.70
2017-10-26T16:39:40.588Z,22.70
2017-10-26T16:45:45.020Z,26.60
2017-10-26T16:51:49.651Z,31.73
2017-10-26T16:57:53.470Z,57.73
2017-10-26T17:03:58.045Z,45.50
2017-10-26T17:10:02.348Z,36.43
2017-10-26T17:16:06.319Z,31.33
2017-10-26T17:22:09.819Z,34.63
2017-10-26T17:28:13.824Z,38.30
2017-10-26T17:34:17.458Z,35.57
2017-10-26T17:40:21.712Z,35.63
2017-10-26T17:46:25.382Z,27.10
2017-10-26T17:52:28.999Z,40.40
2017-10-26T17:58:32.483Z,36.33
2017-10-26T18:04:35.968Z,36.00
2017-10-26T18:10:40.534Z,33.27
2017-10-26T18:16:45.170Z,33.23
2017-10-26T18:22:48.942Z,31.60
2017-10-26T18:28:52.436Z,34.20
2017-10-26T18:34:56.721Z,38.80
2017-10-26T18:41:00.387Z,38.70
2017-10-26T18:47:03.903Z,33.47
2017-10-26T18:53:07.384Z,36.93
2017-10-26T18:59:10.899Z,33.07
2017-10-26T19:05:14.439Z,37.90
2017-10-26T19:11:18.169Z,34.47
2017-10-26T19:17:21.663Z,33.93
2017-10-26T19:23:25.151Z,39.70
2017-10-26T19:29:29.389Z,34.43
2017-10-26T19:35:32.864Z,32.77
2017-10-26T19:41:37.394Z,32.00
2017-10-26T19:47:40.886Z,32.63
2017-10-26T19:53:44.509Z,46.87
2017-10-26T19:59:48.409Z,33.53
2017-10-26T20:05:52.682Z,36.93
2017-10-26T20:11:56.176Z,30.57
2017-10-26T20:17:59.673Z,37.50
2017-10-26T20:24:03.388Z,33.80
2017-10-26T20:30:07.116Z,32.63
2017-10-26T20:36:11.399Z,26.87
2017-10-26T20:42:15.734Z,30.13
2017-10-26T20:48:19.603Z,33.07
2017-10-26T20:54:28.667Z,33.57
2017-10-26T21:00:37.715Z,35.80
2017-10-26T21:06:41.194Z,43.60
2017-10-26T21:12:50.241Z,42.17
2017-10-26T21:18:54.697Z,36.40
2017-10-26T21:24:58.316Z,38.73
2017-10-26T21:31:01.809Z,38.53
2017-10-26T21:37:05.305Z,35.63
2017-10-26T21:43:08.796Z,41.37
2017-10-26T21:49:12.345Z,38.53
2017-10-26T21:55:16.040Z,35.83
2017-10-26T22:01:20.205Z,42.43
2017-10-26T22:07:23.693Z,41.20
2017-10-26T22:13:27.170Z,36.90
2017-10-26T22:19:30.695Z,46.43
2017-10-26T22:25:34.521Z,43.80
2017-10-26T22:31:38.006Z,45.87
2017-10-26T22:37:41.484Z,46.03
2017-10-26T22:43:44.973Z,47.30
2017-10-26T22:49:48.694Z,40.40
2017-10-26T22:55:52.942Z,37.57
2017-10-26T23:01:57.492Z,40.23
2017-10-26T23:08:00.973Z,41.03
2017-10-26T23:14:05.575Z,35.60
2017-10-26T23:20:09.141Z,30.53
2017-10-26T23:26:14.152Z,36.80
2017-10-26T23:32:18.469Z,35.33
2017-10-26T23:38:21.959Z,32.53
2017-10-26T23:44:25.459Z,30.37
2017-10-26T23:50:29.700Z,30.63
2017-10-26T23:56:33.443Z,26.50
